Time;durP1;ratioP1;P1;durP2;ratioP2;P2;SDS_P1;SDS_P2;PMS_P1;PMS_P2;Temp;Humidity;BMP_temperature;BMP_pressure;BME280_temperature;BME280_humidity;BME280_pressure;Samples;Min_cycle;Max_cycle;Signal;HPM_P1;HPM_P2
2022/06/11 00:02:03;;;;;;;6.63;3.88;;;;;;;21.86;72.82;100117.94;31549879;28;20048;-78
2022/06/11 00:17:09;;;;;;;8.68;4.43;;;;;;;21.40;73.57;100116.19;31598727;28;20052;-79
2022/06/11 00:32:12;;;;;;;6.00;4.07;;;;;;;21.14;74.66;100102.41;31549037;28;20059;-79
2022/06/11 00:47:23;;;;;;;8.05;4.35;;;;;;;20.82;78.82;100095.38;31565567;28;20058;-79
2022/06/11 01:02:26;;;;;;;11.80;5.35;;;;;;;20.65;77.66;100109.78;31565856;28;20048;-79
2022/06/11 01:17:37;;;;;;;9.00;5.10;;;;;;;20.47;78.85;100107.34;31543964;28;20052;-79
2022/06/11 01:32:57;;;;;;;10.43;4.80;;;;;;;20.44;79.42;100116.59;31559167;28;20353;-79
2022/06/11 01:48:01;;;;;;;13.15;5.28;;;;;;;20.38;80.86;100135.06;31550754;28;20046;-79
2022/06/11 02:03:18;;;;;;;14.75;5.60;;;;;;;20.22;86.17;100139.13;31555073;28;20044;-79
2022/06/11 02:18:23;;;;;;;8.02;5.25;;;;;;;20.31;86.30;100147.25;31546608;28;20573;-80
2022/06/11 02:33:25;;;;;;;9.98;5.57;;;;;;;20.60;85.32;100151.09;31554935;28;20059;-79
2022/06/11 02:48:29;;;;;;;18.35;8.15;;;;;;;20.84;83.69;100159.09;31543945;28;20142;-80
2022/06/11 03:03:31;;;;;;;23.85;12.20;;;;;;;21.10;82.63;100163.34;31536578;28;20556;-79
2022/06/11 03:18:33;;;;;;;16.90;10.20;;;;;;;21.28;81.80;100165.03;31571762;28;20177;-79
2022/06/11 03:33:38;;;;;;;13.00;8.00;;;;;;;21.68;81.75;100163.31;31545432;28;20056;-78
2022/06/11 03:48:41;;;;;;;10.25;5.03;;;;;;;21.94;80.62;100160.44;31555514;28;20051;-80
2022/06/11 04:03:46;;;;;;;8.23;5.40;;;;;;;22.65;76.11;100163.97;31585182;28;20135;-80
2022/06/11 04:18:50;;;;;;;18.02;7.32;;;;;;;22.96;74.62;100165.78;31550197;28;20086;-78
2022/06/11 04:33:52;;;;;;;21.02;8.05;;;;;;;23.32;72.99;100159.25;31563935;28;20131;-81
2022/06/11 04:48:54;;;;;;;20.23;8.63;;;;;;;24.09;70.64;100163.13;31591732;28;20044;-79
2022/06/11 05:03:56;;;;;;;24.97;9.50;;;;;;;24.97;67.63;100159.66;31569331;28;20048;-79
2022/06/11 05:18:59;;;;;;;17.40;8.47;;;;;;;25.82;64.78;100175.06;31615564;28;20087;-79
2022/06/11 05:34:01;;;;;;;10.68;6.00;;;;;;;26.68;59.65;100180.56;31617260;28;20106;-80
2022/06/11 05:49:08;;;;;;;9.73;4.35;;;;;;;27.34;49.92;100189.19;31600912;28;20056;-80
2022/06/11 06:04:10;;;;;;;12.48;3.97;;;;;;;28.02;46.28;100189.47;31540525;28;20044;-80
2022/06/11 06:19:12;;;;;;;9.45;2.22;;;;;;;28.74;40.63;100194.81;31556268;28;20098;-80
2022/06/11 06:34:15;;;;;;;5.72;1.90;;;;;;;29.11;35.73;100199.31;31544008;28;20062;-78
2022/06/11 06:49:18;;;;;;;8.00;3.25;;;;;;;29.52;31.45;100192.97;31572656;28;20051;-80
2022/06/11 07:04:20;;;;;;;7.88;2.33;;;;;;;29.62;29.45;100196.00;31532416;28;20054;-80
2022/06/11 07:20:12;;;;;;;5.75;2.10;;;;;;;30.22;26.75;100189.31;31557699;28;20496;-83
2022/06/11 07:35:16;;;;;;;3.15;2.03;;;;;;;30.56;25.65;100183.47;31621584;28;20075;-82
2022/06/11 07:50:18;;;;;;;5.50;2.60;;;;;;;31.33;26.21;100180.22;31586740;28;20064;-83
2022/06/11 08:05:20;;;;;;;5.22;3.22;;;;;;;32.01;24.57;100178.63;31581246;28;20498;-83
2022/06/11 08:20:28;;;;;;;5.13;3.15;;;;;;;31.18;24.31;100180.22;31568759;28;20052;-81
2022/06/11 08:35:33;;;;;;;6.60;3.20;;;;;;;31.65;23.25;100159.25;31598094;28;20443;-84
2022/06/11 08:50:40;;;;;;;6.40;2.78;;;;;;;32.56;23.83;100150.50;31575857;28;20056;-76
2022/06/11 09:05:54;;;;;;;5.32;3.25;;;;;;;32.71;23.33;100136.34;31542698;28;20128;-76
2022/06/11 09:21:31;;;;;;;9.95;3.80;;;;;;;33.42;22.04;100133.91;31540852;28;20531;-78
2022/06/11 09:36:38;;;;;;;10.48;2.58;;;;;;;33.45;22.50;100132.75;31532503;28;20412;-76
2022/06/11 09:52:10;;;;;;;5.90;2.97;;;;;;;34.07;21.82;100127.94;31549477;28;20047;-75
2022/06/11 10:07:28;;;;;;;9.02;3.38;;;;;;;34.71;20.44;100114.69;31545239;28;20066;-79
2022/06/11 10:22:38;;;;;;;5.80;3.70;;;;;;;34.50;22.19;100106.69;31582535;28;20088;-79
2022/06/11 10:37:47;;;;;;;7.88;3.47;;;;;;;33.83;22.50;100097.84;31552836;28;20135;-79
2022/06/11 10:53:17;;;;;;;3.95;2.30;;;;;;;34.45;21.35;100076.00;31553512;28;20059;-78
2022/06/11 11:08:19;;;;;;;2.22;1.55;;;;;;;32.97;22.79;100075.25;31583799;28;20077;-78
2022/06/11 11:23:35;;;;;;;2.65;1.70;;;;;;;33.43;23.09;100056.63;31573211;28;20055;-82
2022/06/11 11:38:37;;;;;;;2.75;1.40;;;;;;;32.83;23.87;100046.72;31576774;28;20048;-80
2022/06/11 11:53:47;;;;;;;3.08;2.28;;;;;;;32.55;24.55;100033.81;31565171;28;20062;-76
2022/06/11 12:08:51;;;;;;;;;;;;;;;31.68;24.33;100029.03;31596042;28;20059;-75
2022/06/11 12:24:26;;;;;;;3.88;2.13;;;;;;;31.49;24.23;100013.38;31568380;28;19919;-78
2022/06/11 12:39:43;;;;;;;3.90;2.70;;;;;;;31.63;24.62;99999.13;31584161;28;20126;-76
2022/06/11 12:55:06;;;;;;;2.75;1.60;;;;;;;30.99;24.96;99989.19;31562797;28;20052;-82
2022/06/11 13:10:37;;;;;;;5.90;2.42;;;;;;;30.69;26.04;99973.19;31560916;28;20430;-76
2022/06/11 13:25:46;;;;;;;7.77;3.40;;;;;;;30.86;26.83;99943.28;31562580;28;20044;-76
2022/06/11 13:41:02;;;;;;;7.72;2.65;;;;;;;30.96;25.71;99949.03;31565631;28;20052;-77
2022/06/11 13:56:15;;;;;;;8.48;3.00;;;;;;;30.91;25.67;99927.59;31566421;28;20055;-76
2022/06/11 14:11:37;;;;;;;3.55;1.92;;;;;;;30.75;25.85;99921.25;31565947;28;20054;-75
2022/06/11 14:26:45;;;;;;;9.52;3.17;;;;;;;30.79;26.28;99904.06;31563744;28;20183;-74
2022/06/11 14:41:49;;;;;;;4.38;2.70;;;;;;;30.54;26.22;99903.91;31551171;28;20143;-77
2022/06/11 14:57:16;;;;;;;4.60;2.55;;;;;;;30.18;27.37;99896.47;31566979;28;20426;-78
2022/06/11 15:12:29;;;;;;;6.15;1.75;;;;;;;30.09;27.07;99897.00;31511674;28;20664;-77
2022/06/11 15:27:38;;;;;;;4.05;1.63;;;;;;;29.99;27.92;99903.75;31553858;28;20516;-78
2022/06/11 15:42:45;;;;;;;2.55;1.67;;;;;;;29.96;27.49;99902.78;31542326;28;20052;-76
2022/06/11 15:57:51;;;;;;;2.70;1.52;;;;;;;29.94;27.94;99899.78;31564794;28;20118;-78
2022/06/11 16:12:55;;;;;;;3.33;2.00;;;;;;;29.79;28.85;99897.69;31583201;28;20146;-79
2022/06/11 16:27:58;;;;;;;4.18;2.58;;;;;;;29.69;29.05;99879.25;31570156;28;20048;-77
2022/06/11 16:43:05;;;;;;;4.80;2.00;;;;;;;29.48;29.25;99862.59;31585741;28;20055;-76
2022/06/11 16:58:33;;;;;;;6.35;2.08;;;;;;;29.22;29.96;99854.50;31563000;28;20503;-76
2022/06/11 17:13:37;;;;;;;6.63;3.92;;;;;;;28.98;30.72;99850.13;31569667;28;20056;-78
2022/06/11 17:28:41;;;;;;;6.10;4.03;;;;;;;28.71;30.73;99844.75;31592663;28;20054;-75
2022/06/11 17:43:44;;;;;;;9.15;3.28;;;;;;;28.51;30.86;99870.69;31558663;28;20048;-77
2022/06/11 17:58:47;;;;;;;8.18;3.70;;;;;;;28.08;32.34;99874.81;31584599;28;20040;-75
2022/06/11 18:13:49;;;;;;;34.17;11.90;;;;;;;27.46;34.33;99895.00;31567898;28;20056;-75
2022/06/11 18:28:51;;;;;;;11.50;5.43;;;;;;;27.12;34.98;99911.69;31561546;28;20074;-79
2022/06/11 18:43:53;;;;;;;10.88;5.53;;;;;;;26.79;35.78;99907.50;31569735;28;20055;-80
2022/06/11 18:58:57;;;;;;;18.55;6.38;;;;;;;26.46;36.36;99913.69;31558296;28;20392;-79
2022/06/11 19:13:59;;;;;;;14.85;6.40;;;;;;;26.16;37.00;99909.13;31556314;28;20108;-78
2022/06/11 19:29:01;;;;;;;42.13;26.42;;;;;;;25.91;37.27;99896.63;31557580;28;20138;-80
2022/06/11 19:44:07;;;;;;;11.00;5.20;;;;;;;25.58;38.03;99905.44;31607169;28;20098;-83
2022/06/11 19:59:10;;;;;;;8.98;4.10;;;;;;;25.07;38.57;99908.09;31570268;28;20056;-77
2022/06/11 20:14:12;;;;;;;9.38;4.82;;;;;;;24.88;39.03;99904.53;31551775;28;20052;-77
2022/06/11 20:29:14;;;;;;;7.87;3.93;;;;;;;24.74;39.40;99893.31;31555785;28;20064;-78
2022/06/11 20:44:16;;;;;;;7.75;3.47;;;;;;;24.73;39.00;99897.38;31561049;28;20320;-78
2022/06/11 20:59:19;;;;;;;19.48;3.50;;;;;;;24.62;39.36;99903.03;31556570;28;20040;-77
2022/06/11 21:14:23;;;;;;;6.80;2.80;;;;;;;24.47;38.62;99886.03;31583087;28;20405;-77
2022/06/11 21:29:25;;;;;;;7.18;2.90;;;;;;;24.37;38.24;99893.19;31521799;28;20609;-76
2022/06/11 21:44:31;;;;;;;5.57;2.67;;;;;;;24.19;38.64;99877.19;31542700;28;20129;-77
2022/06/11 21:59:36;;;;;;;6.85;2.42;;;;;;;24.00;38.42;99866.75;31551694;28;20046;-76
2022/06/11 22:14:40;;;;;;;7.90;2.90;;;;;;;23.73;39.37;99859.41;31604629;28;20048;-77
2022/06/11 22:29:43;;;;;;;32.53;19.10;;;;;;;23.54;39.37;99842.66;31550116;28;20059;-76
2022/06/11 22:44:44;;;;;;;11.40;3.00;;;;;;;23.33;40.33;99822.88;31536568;28;20060;-76
2022/06/11 22:59:47;;;;;;;8.27;3.53;;;;;;;23.16;41.35;99813.91;31528278;28;20045;-77
2022/06/11 23:14:49;;;;;;;6.23;3.13;;;;;;;22.78;42.75;99808.06;31579126;28;20160;-75
2022/06/11 23:29:50;;;;;;;8.00;3.43;;;;;;;22.30;44.27;99796.63;31546557;28;20356;-77
